sensor_id;sensor_type;location;lat;lon;timestamp;P1;durP1;ratioP1;P2;durP2;ratioP2
12373;SDS011;6251;51.762;8.660;2023-03-14T00:03:45;3.03;;;1.40;;
12373;SDS011;6251;51.762;8.660;2023-03-14T00:13:47;3.22;;;1.30;;
12373;SDS011;6251;51.762;8.660;2023-03-14T02:05:35;2.78;;;1.50;;
12373;SDS011;6251;51.762;8.660;2023-03-14T03:48:07;3.47;;;1.23;;
12373;SDS011;6251;51.762;8.660;2023-03-14T03:58:07;2.28;;;0.80;;
12373;SDS011;6251;51.762;8.660;2023-03-14T05:09:10;0.77;;;0.62;;
12373;SDS011;6251;51.762;8.660;2023-03-14T05:19:11;2.10;;;1.05;;
12373;SDS011;6251;51.762;8.660;2023-03-14T05:29:11;4.43;;;1.10;;
12373;SDS011;6251;51.762;8.660;2023-03-14T05:39:12;4.03;;;1.33;;
12373;SDS011;6251;51.762;8.660;2023-03-14T05:49:13;2.87;;;1.25;;
12373;SDS011;6251;51.762;8.660;2023-03-14T05:59:13;2.45;;;0.98;;
12373;SDS011;6251;51.762;8.660;2023-03-14T06:09:14;1.50;;;1.35;;
12373;SDS011;6251;51.762;8.660;2023-03-14T06:19:15;2.22;;;1.10;;
12373;SDS011;6251;51.762;8.660;2023-03-14T06:29:16;1.25;;;1.05;;
12373;SDS011;6251;51.762;8.660;2023-03-14T06:39:17;3.83;;;1.20;;
12373;SDS011;6251;51.762;8.660;2023-03-14T06:49:17;3.25;;;1.98;;
12373;SDS011;6251;51.762;8.660;2023-03-14T06:59:18;5.87;;;4.53;;
12373;SDS011;6251;51.762;8.660;2023-03-14T07:09:19;2.90;;;2.20;;
12373;SDS011;6251;51.762;8.660;2023-03-14T07:19:19;4.60;;;1.95;;
12373;SDS011;6251;51.762;8.660;2023-03-14T07:29:20;2.15;;;1.98;;
12373;SDS011;6251;51.762;8.660;2023-03-14T07:39:21;5.62;;;2.90;;
12373;SDS011;6251;51.762;8.660;2023-03-14T07:49:21;5.32;;;2.42;;
12373;SDS011;6251;51.762;8.660;2023-03-14T07:59:22;2.90;;;1.90;;
12373;SDS011;6251;51.762;8.660;2023-03-14T08:09:22;0.85;;;0.75;;
12373;SDS011;6251;51.762;8.660;2023-03-14T08:19:23;0.60;;;0.60;;
12373;SDS011;6251;51.762;8.660;2023-03-14T08:29:24;1.52;;;0.50;;
12373;SDS011;6251;51.762;8.660;2023-03-14T08:39:25;0.40;;;0.40;;
12373;SDS011;6251;51.762;8.660;2023-03-14T08:49:25;1.10;;;0.50;;
12373;SDS011;6251;51.762;8.660;2023-03-14T08:59:26;0.30;;;0.30;;
12373;SDS011;6251;51.762;8.660;2023-03-14T09:09:27;1.12;;;0.43;;
12373;SDS011;6251;51.762;8.660;2023-03-14T09:19:27;0.30;;;0.30;;
12373;SDS011;6251;51.762;8.660;2023-03-14T09:29:28;0.43;;;0.43;;
12373;SDS011;6251;51.762;8.660;2023-03-14T09:39:29;0.70;;;0.70;;
12373;SDS011;6251;51.762;8.660;2023-03-14T09:49:37;0.70;;;0.70;;
12373;SDS011;6251;51.762;8.660;2023-03-14T09:59:41;0.80;;;0.80;;
12373;SDS011;6251;51.762;8.660;2023-03-14T10:09:44;0.82;;;0.82;;
12373;SDS011;6251;51.762;8.660;2023-03-14T10:19:56;1.00;;;0.90;;
12373;SDS011;6251;51.762;8.660;2023-03-14T10:30:00;1.00;;;1.00;;
12373;SDS011;6251;51.762;8.660;2023-03-14T10:40:12;3.08;;;1.48;;
12373;SDS011;6251;51.762;8.660;2023-03-14T11:00:27;1.75;;;0.90;;
12373;SDS011;6251;51.762;8.660;2023-03-14T11:10:33;0.50;;;0.50;;
12373;SDS011;6251;51.762;8.660;2023-03-14T11:31:42;1.15;;;1.15;;
12373;SDS011;6251;51.762;8.660;2023-03-14T11:41:41;1.45;;;1.35;;
12373;SDS011;6251;51.762;8.660;2023-03-14T11:51:52;1.87;;;1.55;;
12373;SDS011;6251;51.762;8.660;2023-03-14T12:02:03;0.80;;;0.80;;
12373;SDS011;6251;51.762;8.660;2023-03-14T12:12:06;0.32;;;0.32;;
12373;SDS011;6251;51.762;8.660;2023-03-14T12:22:30;0.35;;;0.35;;
12373;SDS011;6251;51.762;8.660;2023-03-14T12:32:33;0.57;;;0.57;;
12373;SDS011;6251;51.762;8.660;2023-03-14T13:03:17;3.25;;;1.25;;
12373;SDS011;6251;51.762;8.660;2023-03-14T13:13:22;3.50;;;1.37;;
12373;SDS011;6251;51.762;8.660;2023-03-14T13:23:29;5.57;;;1.83;;
12373;SDS011;6251;51.762;8.660;2023-03-14T13:33:34;8.90;;;1.83;;
12373;SDS011;6251;51.762;8.660;2023-03-14T13:43:41;6.37;;;2.03;;
12373;SDS011;6251;51.762;8.660;2023-03-14T14:03:52;8.00;;;2.20;;
12373;SDS011;6251;51.762;8.660;2023-03-14T14:13:55;10.50;;;2.43;;
12373;SDS011;6251;51.762;8.660;2023-03-14T14:23:56;13.03;;;3.00;;
12373;SDS011;6251;51.762;8.660;2023-03-14T14:33:58;9.85;;;2.65;;
12373;SDS011;6251;51.762;8.660;2023-03-14T14:44:00;8.57;;;2.40;;
12373;SDS011;6251;51.762;8.660;2023-03-14T14:54:05;12.10;;;2.83;;
12373;SDS011;6251;51.762;8.660;2023-03-14T15:04:12;9.23;;;2.37;;
12373;SDS011;6251;51.762;8.660;2023-03-14T15:14:14;9.68;;;2.37;;
12373;SDS011;6251;51.762;8.660;2023-03-14T15:24:15;5.72;;;2.65;;
12373;SDS011;6251;51.762;8.660;2023-03-14T15:34:16;10.32;;;3.20;;
12373;SDS011;6251;51.762;8.660;2023-03-14T15:44:29;8.70;;;2.67;;
12373;SDS011;6251;51.762;8.660;2023-03-14T15:54:29;9.25;;;2.20;;
12373;SDS011;6251;51.762;8.660;2023-03-14T16:04:30;6.03;;;1.83;;
12373;SDS011;6251;51.762;8.660;2023-03-14T16:14:30;4.37;;;1.63;;
12373;SDS011;6251;51.762;8.660;2023-03-14T16:24:31;4.70;;;1.20;;
12373;SDS011;6251;51.762;8.660;2023-03-14T16:34:32;6.85;;;2.10;;
12373;SDS011;6251;51.762;8.660;2023-03-14T16:44:32;7.22;;;1.92;;
12373;SDS011;6251;51.762;8.660;2023-03-14T16:54:33;4.03;;;1.62;;
12373;SDS011;6251;51.762;8.660;2023-03-14T17:04:33;3.40;;;1.42;;
12373;SDS011;6251;51.762;8.660;2023-03-14T17:14:34;3.08;;;1.33;;
12373;SDS011;6251;51.762;8.660;2023-03-14T17:24:35;1.70;;;1.50;;
12373;SDS011;6251;51.762;8.660;2023-03-14T17:34:36;3.83;;;1.73;;
12373;SDS011;6251;51.762;8.660;2023-03-14T17:44:36;5.23;;;1.53;;
12373;SDS011;6251;51.762;8.660;2023-03-14T17:54:38;11.38;;;4.28;;
12373;SDS011;6251;51.762;8.660;2023-03-14T18:04:39;12.87;;;5.40;;
12373;SDS011;6251;51.762;8.660;2023-03-14T18:14:39;18.17;;;8.53;;
12373;SDS011;6251;51.762;8.660;2023-03-14T18:24:43;14.23;;;5.87;;
12373;SDS011;6251;51.762;8.660;2023-03-14T18:34:43;8.17;;;2.80;;
12373;SDS011;6251;51.762;8.660;2023-03-14T18:44:44;8.57;;;4.23;;
12373;SDS011;6251;51.762;8.660;2023-03-14T18:54:45;8.13;;;4.33;;
12373;SDS011;6251;51.762;8.660;2023-03-14T19:04:45;5.83;;;2.70;;
12373;SDS011;6251;51.762;8.660;2023-03-14T19:14:46;3.70;;;2.57;;
12373;SDS011;6251;51.762;8.660;2023-03-14T19:24:47;4.07;;;2.83;;
12373;SDS011;6251;51.762;8.660;2023-03-14T19:34:47;2.17;;;1.77;;
12373;SDS011;6251;51.762;8.660;2023-03-14T19:44:48;3.60;;;1.83;;
12373;SDS011;6251;51.762;8.660;2023-03-14T19:54:48;5.40;;;2.40;;
12373;SDS011;6251;51.762;8.660;2023-03-14T20:04:49;4.67;;;1.70;;
12373;SDS011;6251;51.762;8.660;2023-03-14T20:14:53;5.43;;;1.93;;
12373;SDS011;6251;51.762;8.660;2023-03-14T20:24:54;5.00;;;1.70;;
12373;SDS011;6251;51.762;8.660;2023-03-14T20:34:54;2.67;;;1.80;;
12373;SDS011;6251;51.762;8.660;2023-03-14T20:44:55;5.73;;;2.00;;
12373;SDS011;6251;51.762;8.660;2023-03-14T20:54:55;2.67;;;2.07;;
12373;SDS011;6251;51.762;8.660;2023-03-14T21:04:56;9.93;;;2.67;;
12373;SDS011;6251;51.762;8.660;2023-03-14T21:14:57;6.20;;;2.10;;
12373;SDS011;6251;51.762;8.660;2023-03-14T21:24:57;8.87;;;2.30;;
12373;SDS011;6251;51.762;8.660;2023-03-14T21:34:58;4.17;;;1.80;;
12373;SDS011;6251;51.762;8.660;2023-03-14T21:44:58;3.00;;;1.80;;
12373;SDS011;6251;51.762;8.660;2023-03-14T21:55:00;6.33;;;2.20;;
